createdAt,value
2018-11-11T00:00:11.364Z,10.10
2018-11-11T00:02:40.023Z,12.77
2018-11-11T00:05:09.583Z,12.20
2018-11-11T00:07:38.446Z,11.33
2018-11-11T00:10:07.099Z,12.00
2018-11-11T00:12:35.981Z,12.87
2018-11-11T00:15:04.970Z,11.97
2018-11-11T00:17:33.706Z,13.97
2018-11-11T00:20:02.270Z,12.57
2018-11-11T00:22:30.793Z,12.43
2018-11-11T00:24:59.508Z,13.30
2018-11-11T00:27:27.971Z,14.67
2018-11-11T00:29:56.788Z,13.33
2018-11-11T00:32:25.253Z,14.03
2018-11-11T00:34:54.125Z,12.93
2018-11-11T00:37:22.614Z,13.90
2018-11-11T00:39:51.135Z,14.17
2018-11-11T00:42:20.555Z,13.93
2018-11-11T00:44:49.079Z,13.13
2018-11-11T00:47:17.754Z,15.17
2018-11-11T00:49:46.282Z,13.77
2018-11-11T00:52:15.074Z,13.47
2018-11-11T00:54:43.539Z,14.00
2018-11-11T00:57:12.521Z,14.67
2018-11-11T00:59:41.025Z,13.37
2018-11-11T01:02:09.520Z,13.60
2018-11-11T01:04:37.994Z,14.03
2018-11-11T01:07:06.626Z,13.87
2018-11-11T01:09:35.475Z,14.27
2018-11-11T01:12:04.027Z,13.33
2018-11-11T01:14:32.788Z,14.67
2018-11-11T01:17:01.246Z,14.50
2018-11-11T01:19:29.859Z,13.60
2018-11-11T01:21:58.337Z,14.20
2018-11-11T01:24:26.845Z,12.97
2018-11-11T01:26:55.511Z,13.93
2018-11-11T01:29:24.030Z,12.17
2018-11-11T01:31:52.886Z,13.70
2018-11-11T01:34:21.371Z,13.90
2018-11-11T01:36:49.985Z,13.70
2018-11-11T01:39:18.528Z,14.03
2018-11-11T01:41:47.047Z,13.87
2018-11-11T01:44:15.881Z,15.07
2018-11-11T01:46:44.482Z,13.43
2018-11-11T01:49:13.151Z,14.00
2018-11-11T01:51:41.726Z,13.07
2018-11-11T01:54:10.292Z,13.00
2018-11-11T01:56:38.915Z,13.77
2018-11-11T01:59:07.461Z,13.63
2018-11-11T02:01:36.183Z,13.40
2018-11-11T02:04:05.017Z,13.67
2018-11-11T02:06:33.772Z,14.37
2018-11-11T02:09:02.271Z,14.27
2018-11-11T02:11:30.950Z,13.33
2018-11-11T02:13:59.509Z,13.27
2018-11-11T02:16:28.002Z,12.43
2018-11-11T02:18:56.506Z,14.93
2018-11-11T02:21:25.156Z,13.13
2018-11-11T02:23:53.854Z,14.27
2018-11-11T02:26:22.335Z,13.90
2018-11-11T02:28:51.209Z,13.97
2018-11-11T02:31:19.672Z,14.27
2018-11-11T02:33:48.199Z,14.80
2018-11-11T02:36:16.774Z,13.67
2018-11-11T02:38:45.255Z,14.17
2018-11-11T02:41:14.083Z,14.57
2018-11-11T02:43:42.603Z,14.67
2018-11-11T02:46:11.550Z,13.63
2018-11-11T02:48:40.015Z,13.97
2018-11-11T02:51:08.601Z,14.50
2018-11-11T02:53:37.191Z,13.97
2018-11-11T02:56:06.399Z,14.03
2018-11-11T02:58:35.159Z,14.40
2018-11-11T03:01:03.705Z,14.20
2018-11-11T03:03:32.621Z,14.60
2018-11-11T03:06:01.126Z,14.50
2018-11-11T03:08:29.726Z,14.17
2018-11-11T03:10:58.246Z,14.17
2018-11-11T03:13:26.794Z,14.73
2018-11-11T03:15:55.330Z,14.50
2018-11-11T03:18:23.814Z,14.83
2018-11-11T03:20:52.676Z,14.50
2018-11-11T03:23:21.223Z,14.50
2018-11-11T03:25:50.059Z,13.00
2018-11-11T03:28:18.559Z,15.70
2018-11-11T03:30:47.246Z,13.97
2018-11-11T03:33:15.797Z,14.53
2018-11-11T03:35:44.322Z,15.00
2018-11-11T03:38:12.963Z,15.27
2018-11-11T03:40:41.450Z,15.17
2018-11-11T03:43:10.359Z,14.50
2018-11-11T03:45:38.836Z,15.50
2018-11-11T03:48:07.475Z,14.37
2018-11-11T03:50:36.023Z,14.43
2018-11-11T03:53:04.609Z,15.67
2018-11-11T03:55:33.208Z,15.63
2018-11-11T03:58:01.822Z,15.83
2018-11-11T04:00:30.691Z,15.67
2018-11-11T04:02:59.251Z,14.50
2018-11-11T04:05:28.099Z,15.77
2018-11-11T04:07:56.568Z,16.80
2018-11-11T04:10:25.227Z,14.53
2018-11-11T04:12:53.687Z,15.50
2018-11-11T04:15:22.158Z,14.53
2018-11-11T04:17:50.915Z,14.67
2018-11-11T04:20:20.504Z,14.90
2018-11-11T04:22:49.602Z,15.00
2018-11-11T04:25:18.639Z,15.33
2018-11-11T04:27:47.463Z,14.33
2018-11-11T04:30:16.262Z,15.93
2018-11-11T04:32:44.822Z,15.53
2018-11-11T04:35:13.710Z,15.60
2018-11-11T04:37:42.277Z,14.57
2018-11-11T04:40:12.070Z,14.00
2018-11-11T04:42:40.634Z,15.13
2018-11-11T04:45:12.733Z,16.07
2018-11-11T04:47:41.335Z,15.17
2018-11-11T04:50:11.751Z,14.97
2018-11-11T04:52:40.306Z,14.87
2018-11-11T04:55:09.661Z,14.97
2018-11-11T04:57:38.306Z,14.50
2018-11-11T05:00:08.486Z,14.70
2018-11-11T05:02:37.119Z,14.17
2018-11-11T05:05:06.514Z,14.80
2018-11-11T05:07:34.986Z,14.43
2018-11-11T05:10:04.150Z,15.17
2018-11-11T05:12:32.631Z,15.03
2018-11-11T05:15:01.524Z,14.83
2018-11-11T05:17:30.050Z,15.23
2018-11-11T05:19:58.547Z,17.27
2018-11-11T05:22:27.325Z,14.20
2018-11-11T05:24:55.832Z,15.57
2018-11-11T05:27:24.551Z,16.33
2018-11-11T05:29:53.023Z,16.70
2018-11-11T05:32:21.716Z,14.73
2018-11-11T05:34:50.207Z,15.50
2018-11-11T05:37:18.730Z,13.73
2018-11-11T05:39:47.300Z,15.00
2018-11-11T05:42:15.829Z,15.43
2018-11-11T05:44:44.576Z,16.50
2018-11-11T05:47:13.151Z,15.30
2018-11-11T05:49:41.975Z,14.77
2018-11-11T05:52:10.450Z,16.50
2018-11-11T05:54:39.062Z,16.07
2018-11-11T05:57:07.661Z,14.73
2018-11-11T05:59:36.160Z,15.27
2018-11-11T06:02:05.139Z,15.37
2018-11-11T06:04:33.810Z,14.77
2018-11-11T06:07:02.606Z,15.67
2018-11-11T06:09:31.088Z,14.70
2018-11-11T06:11:59.738Z,14.20
2018-11-11T06:14:28.218Z,15.43
2018-11-11T06:16:56.850Z,15.40
2018-11-11T06:19:25.550Z,15.03
2018-11-11T06:21:54.314Z,16.77
2018-11-11T06:24:23.203Z,15.30
2018-11-11T06:26:51.822Z,16.93
2018-11-11T06:29:20.891Z,16.50
2018-11-11T06:31:49.640Z,16.57
2018-11-11T06:34:18.483Z,14.77
2018-11-11T06:36:48.154Z,16.80
2018-11-11T06:39:16.980Z,14.93
2018-11-11T06:41:45.524Z,15.67
2018-11-11T06:44:14.190Z,15.00
2018-11-11T06:46:43.332Z,15.23
2018-11-11T06:49:11.943Z,15.70
2018-11-11T06:51:41.317Z,16.00
2018-11-11T06:54:10.003Z,15.53
2018-11-11T06:56:39.028Z,16.33
2018-11-11T06:59:07.691Z,16.60
2018-11-11T07:01:36.483Z,15.97
2018-11-11T07:04:05.373Z,18.23
2018-11-11T07:06:34.282Z,26.90
2018-11-11T07:09:03.301Z,15.27
2018-11-11T07:11:31.819Z,17.17
2018-11-11T07:14:01.181Z,15.70
2018-11-11T07:16:29.698Z,16.27
2018-11-11T07:18:59.256Z,15.13
2018-11-11T07:21:27.807Z,15.60
2018-11-11T07:23:56.974Z,15.47
2018-11-11T07:26:25.884Z,14.47
2018-11-11T07:28:54.622Z,15.67
2018-11-11T07:31:23.202Z,15.20
2018-11-11T07:33:51.710Z,22.02
2018-11-11T07:36:21.114Z,15.40
2018-11-11T07:38:49.587Z,15.90
2018-11-11T07:41:18.378Z,16.00
2018-11-11T07:43:46.875Z,14.93
2018-11-11T07:46:15.770Z,14.67
2018-11-11T07:48:44.408Z,15.53
2018-11-11T07:51:13.025Z,14.20
2018-11-11T07:53:41.507Z,13.83
2018-11-11T07:56:10.086Z,14.87
2018-11-11T07:58:39.004Z,14.40
2018-11-11T08:01:08.040Z,16.23
2018-11-11T08:03:37.225Z,15.67
2018-11-11T08:06:06.331Z,16.50
2018-11-11T08:08:35.282Z,14.97
2018-11-11T08:11:14.848Z,15.87
2018-11-11T08:13:43.364Z,16.20
2018-11-11T08:16:12.930Z,16.00
2018-11-11T08:18:44.761Z,16.37
2018-11-11T08:21:14.181Z,16.17
2018-11-11T08:23:43.046Z,18.43
2018-11-11T08:26:11.715Z,16.97
2018-11-11T08:28:40.310Z,16.30
2018-11-11T08:31:08.850Z,15.67
2018-11-11T08:33:37.640Z,17.27
2018-11-11T08:36:06.426Z,17.67
2018-11-11T08:38:35.120Z,18.70
2018-11-11T08:41:04.151Z,17.87
2018-11-11T08:43:32.615Z,16.87
2018-11-11T08:46:01.397Z,18.90
2018-11-11T08:48:29.975Z,16.63
2018-11-11T08:50:58.479Z,17.43
2018-11-11T08:53:27.226Z,17.27
2018-11-11T08:55:55.776Z,17.70
2018-11-11T08:58:24.632Z,17.20
2018-11-11T09:00:53.136Z,17.20
2018-11-11T09:03:21.738Z,16.30
2018-11-11T09:05:50.261Z,17.37
2018-11-11T09:08:18.855Z,16.60
2018-11-11T09:10:47.339Z,16.00
2018-11-11T09:13:15.819Z,16.40
2018-11-11T09:15:44.787Z,15.67
2018-11-11T09:18:13.353Z,15.20
2018-11-11T09:20:42.403Z,16.47
2018-11-11T09:23:10.891Z,15.87
2018-11-11T09:25:39.531Z,15.57
2018-11-11T09:28:08.202Z,15.03
2018-11-11T09:30:36.847Z,14.87
2018-11-11T09:33:06.084Z,14.17
2018-11-11T09:35:34.667Z,14.27
2018-11-11T09:38:03.766Z,14.60
2018-11-11T09:40:32.345Z,13.33
2018-11-11T09:43:01.105Z,14.80
2018-11-11T09:45:29.706Z,15.20
2018-11-11T09:47:58.409Z,13.60
2018-11-11T09:50:26.926Z,13.30
2018-11-11T09:52:55.407Z,13.43
2018-11-11T09:55:24.328Z,13.33
2018-11-11T09:57:52.816Z,13.43
2018-11-11T10:00:22.646Z,13.90
2018-11-11T10:02:57.915Z,12.40
2018-11-11T10:05:33.617Z,11.60
2018-11-11T10:09:05.633Z,12.97
2018-11-11T10:11:38.790Z,11.13
2018-11-11T10:14:08.855Z,11.13
2018-11-11T10:16:50.488Z,11.97
2018-11-11T10:19:25.452Z,10.57
2018-11-11T10:23:02.541Z,9.43
2018-11-11T10:27:41.665Z,9.80
2018-11-11T10:31:17.967Z,9.97
2018-11-11T10:33:53.602Z,11.07
2018-11-11T10:36:42.771Z,9.83
2018-11-11T10:39:17.243Z,10.47
2018-11-11T10:41:57.124Z,10.33
2018-11-11T10:45:03.295Z,10.63
2018-11-11T10:48:35.706Z,10.53
2018-11-11T10:51:05.823Z,10.57
2018-11-11T10:53:34.326Z,9.57
2018-11-11T10:56:03.171Z,10.07
2018-11-11T10:58:31.655Z,9.27
2018-11-11T11:01:05.300Z,9.83
2018-11-11T11:03:35.071Z,10.07
2018-11-11T11:06:04.363Z,8.83
2018-11-11T11:08:33.143Z,9.60
2018-11-11T11:11:01.817Z,10.60
2018-11-11T11:13:30.756Z,9.50
2018-11-11T11:15:59.815Z,9.97
2018-11-11T11:18:28.470Z,8.97
2018-11-11T11:20:57.188Z,9.77
2018-11-11T11:23:25.663Z,8.87
2018-11-11T11:25:54.343Z,9.30
2018-11-11T11:28:22.819Z,9.97
2018-11-11T11:30:51.361Z,9.47
2018-11-11T11:33:20.170Z,9.33
2018-11-11T11:35:48.739Z,9.67
2018-11-11T11:38:17.568Z,9.80
2018-11-11T11:40:46.140Z,9.63
2018-11-11T11:43:14.892Z,9.47
2018-11-11T11:45:43.470Z,9.30
2018-11-11T11:48:12.078Z,9.43
2018-11-11T11:50:40.722Z,8.57
2018-11-11T11:53:09.231Z,8.77
2018-11-11T11:55:37.919Z,8.83
2018-11-11T11:58:14.546Z,8.63
2018-11-11T12:00:43.391Z,9.07
2018-11-11T12:03:12.397Z,8.50
2018-11-11T12:05:41.045Z,8.93
2018-11-11T12:08:09.807Z,7.77
2018-11-11T12:10:38.320Z,8.50
2018-11-11T12:13:07.390Z,6.90
2018-11-11T12:15:36.149Z,8.03
2018-11-11T12:18:04.708Z,6.77
2018-11-11T12:20:33.604Z,7.47
2018-11-11T12:23:02.236Z,7.30
2018-11-11T12:25:31.106Z,6.93
2018-11-11T12:27:59.723Z,7.10
2018-11-11T12:30:28.582Z,7.00
2018-11-11T12:32:57.075Z,7.17
2018-11-11T12:35:25.584Z,6.67
2018-11-11T12:37:54.198Z,6.80
2018-11-11T12:40:22.783Z,7.40
2018-11-11T12:42:51.703Z,7.03
2018-11-11T12:45:20.251Z,6.50
2018-11-11T12:47:48.943Z,6.00
2018-11-11T12:50:17.612Z,6.23
2018-11-11T12:52:46.359Z,6.80
2018-11-11T12:55:15.207Z,6.60
2018-11-11T12:57:43.691Z,7.13
2018-11-11T13:00:13.843Z,7.03
2018-11-11T13:02:42.380Z,6.70
2018-11-11T13:05:11.690Z,7.00
2018-11-11T13:07:40.247Z,7.43
2018-11-11T13:10:12.291Z,7.07
2018-11-11T13:12:40.967Z,6.27
2018-11-11T13:15:11.216Z,7.10
2018-11-11T13:17:40.279Z,7.03
2018-11-11T13:20:11.423Z,6.67
2018-11-11T13:22:40.172Z,6.80
2018-11-11T13:25:09.762Z,6.67
2018-11-11T13:27:38.626Z,6.67
2018-11-11T13:30:08.903Z,6.83
2018-11-11T13:32:37.603Z,6.33
2018-11-11T13:35:07.527Z,6.77
2018-11-11T13:37:36.070Z,6.83
2018-11-11T13:40:06.234Z,6.80
2018-11-11T13:42:34.788Z,7.27
2018-11-11T13:45:03.329Z,7.17
2018-11-11T13:47:31.887Z,6.53
2018-11-11T13:50:00.627Z,6.87
2018-11-11T13:52:29.256Z,7.53
2018-11-11T13:54:57.941Z,7.03
2018-11-11T13:57:26.505Z,6.93
2018-11-11T13:59:55.059Z,7.80
2018-11-11T14:02:23.729Z,8.83
2018-11-11T14:04:52.312Z,8.23
2018-11-11T14:07:21.202Z,7.57
2018-11-11T14:09:49.694Z,8.43
2018-11-11T14:12:18.475Z,8.17
2018-11-11T14:14:46.972Z,8.33
2018-11-11T14:17:15.527Z,10.07
2018-11-11T14:19:44.106Z,8.83
2018-11-11T14:22:12.705Z,9.67
2018-11-11T14:24:41.518Z,9.77
2018-11-11T14:27:09.947Z,9.20
2018-11-11T14:29:38.642Z,9.57
2018-11-11T14:32:07.259Z,9.73
2018-11-11T14:34:35.841Z,8.87
2018-11-11T14:37:04.366Z,10.37
2018-11-11T14:39:32.857Z,10.60
2018-11-11T14:42:01.543Z,10.60
2018-11-11T14:44:30.067Z,10.93
2018-11-11T14:46:58.953Z,10.60
2018-11-11T14:49:27.427Z,10.93
2018-11-11T14:51:56.069Z,10.87
2018-11-11T14:54:24.892Z,11.20
2018-11-11T14:56:53.775Z,10.40
2018-11-11T14:59:22.777Z,10.30
2018-11-11T15:01:51.271Z,10.87
2018-11-11T15:04:20.274Z,11.17
2018-11-11T15:06:48.770Z,11.57
2018-11-11T15:09:17.864Z,12.00
2018-11-11T15:11:46.384Z,11.67
2018-11-11T15:14:15.200Z,12.10
2018-11-11T15:16:43.795Z,11.53
2018-11-11T15:19:12.538Z,12.67
2018-11-11T15:21:41.512Z,12.53
2018-11-11T15:24:10.102Z,11.90
2018-11-11T15:26:39.232Z,12.23
2018-11-11T15:29:07.935Z,12.20
2018-11-11T15:31:36.827Z,12.33
2018-11-11T15:34:05.890Z,12.47
2018-11-11T15:36:34.655Z,12.53
2018-11-11T15:39:03.299Z,12.10
2018-11-11T15:41:32.013Z,13.00
2018-11-11T15:44:00.519Z,13.27
2018-11-11T15:46:29.042Z,11.50
2018-11-11T15:48:57.917Z,12.37
2018-11-11T15:51:26.394Z,13.13
2018-11-11T15:53:55.335Z,13.00
2018-11-11T15:56:23.887Z,12.03
2018-11-11T15:58:52.515Z,13.20
2018-11-11T16:01:21.092Z,13.27
2018-11-11T16:03:50.188Z,12.50
2018-11-11T16:06:18.815Z,13.43
2018-11-11T16:08:47.318Z,12.37
2018-11-11T16:11:16.077Z,13.30
2018-11-11T16:13:44.543Z,12.27
2018-11-11T16:16:13.392Z,12.63
2018-11-11T16:18:41.999Z,12.70
2018-11-11T16:21:10.483Z,12.20
2018-11-11T16:23:39.393Z,11.30
2018-11-11T16:26:07.900Z,11.53
2018-11-11T16:28:36.695Z,13.03
2018-11-11T16:31:05.677Z,11.90
2018-11-11T16:33:34.689Z,12.40
2018-11-11T16:36:03.331Z,13.60
2018-11-11T16:38:32.155Z,12.53
2018-11-11T16:41:00.881Z,11.90
2018-11-11T16:43:29.656Z,11.10
2018-11-11T16:45:58.503Z,12.03
2018-11-11T16:48:26.972Z,11.87
2018-11-11T16:50:56.191Z,11.27
2018-11-11T16:53:24.754Z,9.43
2018-11-11T16:55:53.670Z,10.13
2018-11-11T16:58:22.146Z,9.67
2018-11-11T17:00:50.943Z,9.03
2018-11-11T17:03:19.424Z,9.37
2018-11-11T17:05:48.106Z,9.33
2018-11-11T17:08:16.763Z,8.83
2018-11-11T17:10:45.292Z,8.33
2018-11-11T17:13:15.055Z,8.80
2018-11-11T17:15:43.639Z,8.43
2018-11-11T17:18:12.554Z,8.10
2018-11-11T17:20:41.239Z,8.13
2018-11-11T17:23:10.084Z,7.77
2018-11-11T17:25:38.731Z,8.13
2018-11-11T17:28:07.512Z,7.87
2018-11-11T17:30:36.067Z,7.23
2018-11-11T17:33:04.984Z,7.87
2018-11-11T17:35:33.479Z,7.53
2018-11-11T17:38:02.009Z,7.80
2018-11-11T17:40:31.459Z,7.90
2018-11-11T17:43:00.661Z,8.00
2018-11-11T17:45:29.611Z,7.57
2018-11-11T17:47:58.347Z,7.33
2018-11-11T17:50:30.328Z,7.23
2018-11-11T17:52:59.526Z,7.20
2018-11-11T17:55:28.702Z,8.17
2018-11-11T17:57:57.138Z,6.93
2018-11-11T18:00:27.184Z,8.60
2018-11-11T18:02:56.445Z,7.60
2018-11-11T18:05:26.527Z,7.73
2018-11-11T18:07:55.127Z,8.37
2018-11-11T18:10:24.732Z,7.93
2018-11-11T18:12:53.296Z,8.73
2018-11-11T18:15:23.599Z,8.90
2018-11-11T18:17:52.079Z,8.37
2018-11-11T18:20:22.123Z,8.80
2018-11-11T18:22:51.505Z,10.60
2018-11-11T18:25:20.471Z,9.10
2018-11-11T18:27:49.034Z,10.53
2018-11-11T18:30:22.144Z,10.20
2018-11-11T18:32:50.787Z,9.23
2018-11-11T18:35:20.567Z,11.20
2018-11-11T18:37:49.093Z,10.63
2018-11-11T18:40:19.367Z,10.77
2018-11-11T18:42:47.880Z,11.53
2018-11-11T18:45:17.977Z,11.60
2018-11-11T18:47:47.318Z,11.30
2018-11-11T18:50:18.510Z,11.50
2018-11-11T18:52:47.124Z,11.67
2018-11-11T18:55:15.953Z,12.03
2018-11-11T18:57:45.058Z,13.20
2018-11-11T19:00:18.255Z,13.13
2018-11-11T19:02:47.978Z,12.93
2018-11-11T19:05:17.467Z,10.67
2018-11-11T19:07:46.316Z,12.33
2018-11-11T19:10:16.683Z,11.03
2018-11-11T19:12:46.507Z,10.13
2018-11-11T19:15:16.074Z,9.20
2018-11-11T19:17:45.411Z,9.67
2018-11-11T19:20:15.254Z,9.70
2018-11-11T19:22:44.079Z,9.30
2018-11-11T19:25:14.674Z,9.37
2018-11-11T19:27:45.188Z,9.20
2018-11-11T19:30:14.737Z,9.60
2018-11-11T19:32:44.769Z,8.97
2018-11-11T19:35:14.606Z,9.80
2018-11-11T19:37:51.593Z,12.07
2018-11-11T19:40:21.707Z,11.27
2018-11-11T19:42:51.223Z,12.50
2018-11-11T19:45:21.485Z,10.53
2018-11-11T19:47:50.809Z,12.37
2018-11-11T19:50:20.862Z,13.37
2018-11-11T19:52:51.160Z,13.07
2018-11-11T19:55:20.491Z,13.47
2018-11-11T19:57:49.718Z,13.47
2018-11-11T20:00:23.573Z,13.87
2018-11-11T20:02:53.034Z,13.07
2018-11-11T20:05:21.991Z,13.20
2018-11-11T20:07:51.891Z,13.50
2018-11-11T20:10:21.152Z,12.33
2018-11-11T20:12:49.754Z,12.80
2018-11-11T20:15:23.143Z,13.77
2018-11-11T20:17:51.641Z,14.57
2018-11-11T20:20:21.599Z,12.70
2018-11-11T20:22:50.404Z,13.23
2018-11-11T20:25:20.048Z,12.77
2018-11-11T20:27:48.900Z,12.13
2018-11-11T20:30:19.672Z,11.77
2018-11-11T20:32:48.207Z,10.77
2018-11-11T20:35:21.049Z,10.37
2018-11-11T20:37:49.562Z,10.73
2018-11-11T20:40:19.872Z,9.23
2018-11-11T20:42:48.812Z,11.47
2018-11-11T20:45:19.180Z,10.57
2018-11-11T20:47:48.475Z,11.20
2018-11-11T20:50:18.595Z,11.47
2018-11-11T20:52:48.291Z,10.50
2018-11-11T20:55:17.835Z,11.07
2018-11-11T20:57:46.347Z,11.33
2018-11-11T21:00:17.791Z,11.57
2018-11-11T21:02:46.311Z,10.97
2018-11-11T21:05:16.460Z,12.23
2018-11-11T21:07:45.143Z,11.80
2018-11-11T21:10:16.112Z,11.63
2018-11-11T21:12:44.717Z,12.10
2018-11-11T21:15:14.602Z,11.27
2018-11-11T21:17:43.663Z,11.87
2018-11-11T21:20:14.816Z,12.47
2018-11-11T21:22:43.586Z,12.50
2018-11-11T21:25:12.480Z,12.00
2018-11-11T21:27:42.037Z,12.07
2018-11-11T21:30:13.174Z,10.90
2018-11-11T21:32:41.862Z,10.90
2018-11-11T21:35:10.988Z,10.67
2018-11-11T21:37:39.613Z,10.33
2018-11-11T21:40:11.235Z,10.77
2018-11-11T21:42:40.708Z,10.23
2018-11-11T21:45:11.067Z,10.17
2018-11-11T21:47:40.208Z,10.30
2018-11-11T21:50:11.200Z,9.27
2018-11-11T21:52:40.036Z,10.20
2018-11-11T21:55:09.029Z,9.07
2018-11-11T21:57:37.890Z,9.57
2018-11-11T22:00:09.413Z,9.43
2018-11-11T22:02:38.098Z,10.00
2018-11-11T22:05:08.346Z,9.13
2018-11-11T22:07:37.576Z,9.27
2018-11-11T22:10:08.067Z,9.43
2018-11-11T22:12:36.693Z,9.27
2018-11-11T22:15:06.355Z,8.87
2018-11-11T22:17:35.189Z,8.83
2018-11-11T22:20:03.843Z,8.77
2018-11-11T22:22:32.679Z,8.27
2018-11-11T22:25:01.154Z,7.60
2018-11-11T22:27:29.766Z,7.10
2018-11-11T22:29:58.271Z,8.10
2018-11-11T22:32:26.835Z,7.10
2018-11-11T22:34:55.535Z,6.53
2018-11-11T22:37:24.154Z,6.57
2018-11-11T22:39:52.991Z,7.20
2018-11-11T22:42:21.527Z,7.23
2018-11-11T22:44:50.540Z,6.50
2018-11-11T22:47:19.095Z,6.00
2018-11-11T22:49:47.576Z,5.73
2018-11-11T22:52:16.163Z,5.00
2018-11-11T22:54:44.765Z,6.23
2018-11-11T22:57:13.696Z,6.23
2018-11-11T23:02:02.515Z,5.70
2018-11-11T23:04:31.122Z,6.00
2018-11-11T23:06:59.602Z,5.30
2018-11-11T23:09:28.154Z,6.23
2018-11-11T23:11:56.895Z,6.57
2018-11-11T23:14:25.383Z,6.50
2018-11-11T23:16:54.254Z,6.33
2018-11-11T23:19:22.812Z,6.63
2018-11-11T23:21:51.418Z,6.57
2018-11-11T23:24:19.991Z,6.57
2018-11-11T23:26:48.466Z,6.40
2018-11-11T23:29:17.294Z,6.07
2018-11-11T23:31:45.781Z,6.33
2018-11-11T23:34:14.610Z,4.97
2018-11-11T23:36:43.080Z,5.43
2018-11-11T23:39:11.896Z,5.13
2018-11-11T23:41:40.399Z,4.53
2018-11-11T23:44:09.699Z,4.57
2018-11-11T23:46:38.930Z,4.67
2018-11-11T23:49:08.188Z,4.50
2018-11-11T23:51:37.082Z,4.20
2018-11-11T23:54:05.957Z,5.50
2018-11-11T23:56:34.884Z,5.40
2018-11-11T23:59:03.370Z,5.27
